createdAt,value
2023-02-03T00:00:51.399Z,8.20
2023-02-03T00:03:17.729Z,7.22
2023-02-03T00:05:44.181Z,7.95
2023-02-03T00:08:10.913Z,7.60
2023-02-03T00:10:38.751Z,7.45
2023-02-03T00:13:05.311Z,7.93
2023-02-03T00:15:31.554Z,7.15
2023-02-03T00:17:57.746Z,6.68
2023-02-03T00:20:24.087Z,6.68
2023-02-03T00:22:50.446Z,7.10
2023-02-03T00:25:16.736Z,6.25
2023-02-03T00:27:42.983Z,6.85
2023-02-03T00:30:09.639Z,6.95
2023-02-03T00:32:36.026Z,6.93
2023-02-03T00:35:02.264Z,6.63
2023-02-03T00:37:28.465Z,6.35
2023-02-03T00:39:54.692Z,6.35
2023-02-03T00:42:20.913Z,6.00
2023-02-03T00:44:47.166Z,5.85
2023-02-03T00:47:13.601Z,5.97
2023-02-03T00:49:39.874Z,5.80
2023-02-03T00:52:06.135Z,6.22
2023-02-03T00:54:33.710Z,5.30
2023-02-03T00:57:00.179Z,5.55
2023-02-03T00:59:26.505Z,5.60
2023-02-03T01:01:52.801Z,5.25
2023-02-03T01:04:19.011Z,4.68
2023-02-03T01:06:45.525Z,5.05
2023-02-03T01:09:11.746Z,4.30
2023-02-03T01:11:38.002Z,5.00
2023-02-03T01:14:04.214Z,4.57
2023-02-03T01:16:30.986Z,5.22
2023-02-03T01:18:57.251Z,4.80
2023-02-03T01:21:24.322Z,4.68
2023-02-03T01:23:51.264Z,4.85
2023-02-03T01:26:19.023Z,4.90
2023-02-03T01:28:50.279Z,5.07
2023-02-03T01:31:18.097Z,4.38
2023-02-03T01:33:47.996Z,4.50
2023-02-03T01:36:15.154Z,4.70
2023-02-03T01:38:41.363Z,4.40
2023-02-03T01:41:09.755Z,4.82
2023-02-03T01:43:37.206Z,4.78
2023-02-03T01:46:06.560Z,4.93
2023-02-03T01:48:33.632Z,4.60
2023-02-03T01:51:03.663Z,4.63
2023-02-03T01:53:29.964Z,4.03
2023-02-03T01:55:56.960Z,4.90
2023-02-03T01:58:25.722Z,4.45
2023-02-03T02:00:52.215Z,4.47
2023-02-03T02:03:23.634Z,5.40
2023-02-03T02:05:53.201Z,4.40
2023-02-03T02:08:22.363Z,4.20
2023-02-03T02:10:48.628Z,4.75
2023-02-03T02:13:15.594Z,3.85
2023-02-03T02:15:54.173Z,4.10
2023-02-03T02:18:26.470Z,3.60
2023-02-03T02:21:11.407Z,4.65
2023-02-03T02:23:56.186Z,3.67
2023-02-03T02:26:41.152Z,4.20
2023-02-03T02:29:13.493Z,4.10
2023-02-03T02:31:39.838Z,4.57
2023-02-03T02:34:06.047Z,3.88
2023-02-03T02:36:38.097Z,4.20
2023-02-03T02:39:10.405Z,4.40
2023-02-03T02:41:36.642Z,4.05
2023-02-03T02:44:05.868Z,4.45
2023-02-03T02:46:35.413Z,3.60
2023-02-03T02:49:04.572Z,3.78
2023-02-03T02:51:31.311Z,3.92
2023-02-03T02:54:03.464Z,3.60
2023-02-03T02:56:31.556Z,4.40
2023-02-03T02:58:59.622Z,3.85
2023-02-03T03:01:25.892Z,3.97
2023-02-03T03:03:52.731Z,3.90
2023-02-03T03:06:24.891Z,3.85
2023-02-03T03:09:02.516Z,4.18
2023-02-03T03:11:31.678Z,3.83
2023-02-03T03:13:58.044Z,4.20
2023-02-03T03:16:27.898Z,3.95
2023-02-03T03:19:02.552Z,4.05
2023-02-03T03:21:31.938Z,4.50
2023-02-03T03:23:59.620Z,4.53
2023-02-03T03:26:41.189Z,4.10
2023-02-03T03:29:15.805Z,3.92
2023-02-03T03:31:42.295Z,4.25
2023-02-03T03:34:09.328Z,3.85
2023-02-03T03:36:48.052Z,4.05
2023-02-03T03:39:22.751Z,4.30
2023-02-03T03:42:02.138Z,4.28
2023-02-03T03:44:33.703Z,4.82
2023-02-03T03:49:27.195Z,4.57
2023-02-03T03:51:57.584Z,4.07
2023-02-03T03:54:24.885Z,4.55
2023-02-03T03:56:54.612Z,4.47
2023-02-03T03:59:22.315Z,4.75
2023-02-03T04:01:49.979Z,4.28
2023-02-03T04:04:16.564Z,4.43
2023-02-03T04:06:42.800Z,4.72
2023-02-03T04:09:09.071Z,4.03
2023-02-03T04:11:53.793Z,4.13
2023-02-03T04:14:20.089Z,4.22
2023-02-03T04:16:46.306Z,4.50
2023-02-03T04:19:12.723Z,5.30
2023-02-03T04:21:38.967Z,4.10
2023-02-03T04:24:05.377Z,4.50
2023-02-03T04:26:31.682Z,4.05
2023-02-03T04:28:57.898Z,4.18
2023-02-03T04:31:24.167Z,4.22
2023-02-03T04:33:50.499Z,4.50
2023-02-03T04:36:16.692Z,4.00
2023-02-03T04:38:42.873Z,3.65
2023-02-03T04:41:09.113Z,4.00
2023-02-03T04:43:35.352Z,3.70
2023-02-03T04:46:01.718Z,4.30
2023-02-03T04:48:28.241Z,4.22
2023-02-03T04:50:54.459Z,4.25
2023-02-03T04:53:20.653Z,3.78
2023-02-03T04:55:47.835Z,4.50
2023-02-03T04:58:14.129Z,3.88
2023-02-03T05:00:40.487Z,4.38
2023-02-03T05:03:06.839Z,4.38
2023-02-03T05:05:33.090Z,4.28
2023-02-03T05:07:59.296Z,3.88
2023-02-03T05:10:25.991Z,4.38
2023-02-03T05:12:52.423Z,4.00
2023-02-03T05:15:18.619Z,3.78
2023-02-03T05:17:44.848Z,3.97
2023-02-03T05:20:11.393Z,3.60
2023-02-03T05:22:37.715Z,3.50
2023-02-03T05:25:04.544Z,4.18
2023-02-03T05:27:31.781Z,3.30
2023-02-03T05:29:58.013Z,4.10
2023-02-03T05:32:24.211Z,4.30
2023-02-03T05:34:50.420Z,4.20
2023-02-03T05:37:16.762Z,3.58
2023-02-03T05:39:42.985Z,4.07
2023-02-03T05:42:09.224Z,3.50
2023-02-03T05:44:35.443Z,3.97
2023-02-03T05:47:01.664Z,3.67
2023-02-03T05:49:27.906Z,3.08
2023-02-03T05:51:55.198Z,3.35
2023-02-03T05:54:21.894Z,2.67
2023-02-03T05:56:48.115Z,3.50
2023-02-03T05:59:14.417Z,2.83
2023-02-03T06:01:40.863Z,2.72
2023-02-03T06:04:07.247Z,2.95
2023-02-03T06:06:33.892Z,2.92
2023-02-03T06:09:00.694Z,3.08
2023-02-03T06:11:27.207Z,3.30
2023-02-03T06:13:53.680Z,2.70
2023-02-03T06:16:20.820Z,2.40
2023-02-03T06:18:47.072Z,3.33
2023-02-03T06:21:13.766Z,2.65
2023-02-03T06:23:39.999Z,2.75
2023-02-03T06:26:06.250Z,3.30
2023-02-03T06:28:33.452Z,2.50
2023-02-03T06:30:59.858Z,2.63
2023-02-03T06:33:26.392Z,2.67
2023-02-03T06:35:54.109Z,3.08
2023-02-03T06:38:20.327Z,3.13
2023-02-03T06:40:47.785Z,2.60
2023-02-03T06:43:14.224Z,2.17
2023-02-03T06:45:40.592Z,2.35
2023-02-03T06:48:07.598Z,2.92
2023-02-03T06:50:33.918Z,2.63
2023-02-03T06:53:00.117Z,2.88
2023-02-03T06:55:26.334Z,2.90
2023-02-03T06:57:52.612Z,3.25
2023-02-03T07:00:19.484Z,2.83
2023-02-03T07:02:46.222Z,2.58
2023-02-03T07:05:12.723Z,2.90
2023-02-03T07:07:39.388Z,2.20
2023-02-03T07:10:06.530Z,2.63
2023-02-03T07:12:32.763Z,3.38
2023-02-03T07:14:58.942Z,2.90
2023-02-03T07:17:25.221Z,2.40
2023-02-03T07:19:51.474Z,2.80
2023-02-03T07:22:17.700Z,2.58
2023-02-03T07:24:43.943Z,2.58
2023-02-03T07:27:10.138Z,2.33
2023-02-03T07:29:36.341Z,2.50
2023-02-03T07:32:02.758Z,2.30
2023-02-03T07:34:29.215Z,2.60
2023-02-03T07:36:55.447Z,2.47
2023-02-03T07:39:21.633Z,2.20
2023-02-03T07:41:47.835Z,2.55
2023-02-03T07:44:14.103Z,2.70
2023-02-03T07:46:44.683Z,1.85
2023-02-03T07:49:11.475Z,2.37
2023-02-03T07:51:38.003Z,2.42
2023-02-03T07:54:04.236Z,2.05
2023-02-03T07:56:33.282Z,2.45
2023-02-03T07:58:59.724Z,2.35
2023-02-03T08:01:26.405Z,2.30
2023-02-03T08:03:55.067Z,1.85
2023-02-03T08:06:21.490Z,1.80
2023-02-03T08:08:47.702Z,2.38
2023-02-03T08:11:13.978Z,2.17
2023-02-03T08:13:40.176Z,2.40
2023-02-03T08:16:06.628Z,1.80
2023-02-03T08:18:32.917Z,2.13
2023-02-03T08:20:59.160Z,1.83
2023-02-03T08:23:25.384Z,1.67
2023-02-03T08:25:52.471Z,1.90
2023-02-03T08:28:19.137Z,1.83
2023-02-03T08:30:45.415Z,2.28
2023-02-03T08:33:11.627Z,1.60
2023-02-03T08:35:38.980Z,2.03
2023-02-03T08:38:05.221Z,2.08
2023-02-03T08:40:31.519Z,2.15
2023-02-03T08:42:57.793Z,1.73
2023-02-03T08:45:24.018Z,1.92
2023-02-03T08:47:50.229Z,2.55
2023-02-03T08:50:16.623Z,1.98
2023-02-03T08:52:42.842Z,2.15
2023-02-03T08:55:09.076Z,2.20
2023-02-03T08:57:35.879Z,2.10
2023-02-03T09:00:02.564Z,2.10
2023-02-03T09:02:28.866Z,2.10
2023-02-03T09:04:55.131Z,2.28
2023-02-03T09:07:21.399Z,2.35
2023-02-03T09:09:47.649Z,2.60
2023-02-03T09:12:13.921Z,2.17
2023-02-03T09:14:40.266Z,1.88
2023-02-03T09:17:08.268Z,2.13
2023-02-03T09:19:36.408Z,2.40
2023-02-03T09:22:02.913Z,1.80
2023-02-03T09:24:29.367Z,2.65
2023-02-03T09:26:55.873Z,2.25
2023-02-03T09:29:23.127Z,2.60
2023-02-03T09:31:52.606Z,2.72
2023-02-03T09:34:19.857Z,2.58
2023-02-03T09:36:46.490Z,2.85
2023-02-03T09:39:13.123Z,2.20
2023-02-03T09:41:45.439Z,2.40
2023-02-03T09:44:21.999Z,2.45
2023-02-03T09:46:50.724Z,2.60
2023-02-03T09:49:22.330Z,2.10
2023-02-03T09:51:57.856Z,2.70
2023-02-03T09:54:33.205Z,2.55
2023-02-03T09:57:00.260Z,2.80
2023-02-03T09:59:27.409Z,2.80
2023-02-03T10:02:12.411Z,3.25
2023-02-03T10:04:41.737Z,2.90
2023-02-03T10:07:07.996Z,2.70
2023-02-03T10:09:43.981Z,3.08
2023-02-03T10:12:25.248Z,2.78
2023-02-03T10:15:15.669Z,2.70
2023-02-03T10:17:50.532Z,12.18
2023-02-03T10:20:19.087Z,3.63
2023-02-03T10:22:50.590Z,2.90
2023-02-03T10:27:43.802Z,2.85
2023-02-03T10:30:23.529Z,2.92
2023-02-03T10:32:57.533Z,2.97
2023-02-03T10:35:39.735Z,3.25
2023-02-03T10:38:09.791Z,3.30
2023-02-03T10:40:36.942Z,3.50
2023-02-03T10:43:22.291Z,3.10
2023-02-03T10:45:48.490Z,3.30
2023-02-03T10:48:17.285Z,3.50
2023-02-03T10:50:46.510Z,3.13
2023-02-03T10:53:18.475Z,3.72
2023-02-03T10:55:46.502Z,3.38
2023-02-03T10:58:25.510Z,3.33
2023-02-03T11:00:56.678Z,3.38
2023-02-03T11:03:25.007Z,3.83
2023-02-03T11:06:04.183Z,3.17
2023-02-03T11:08:31.284Z,3.53
2023-02-03T11:11:05.051Z,3.83
2023-02-03T11:13:31.303Z,6.18
2023-02-03T11:15:59.779Z,5.22
2023-02-03T11:18:26.018Z,3.85
2023-02-03T11:20:52.581Z,3.83
2023-02-03T11:23:22.726Z,4.05
2023-02-03T11:25:49.788Z,4.00
2023-02-03T11:28:16.941Z,3.83
2023-02-03T11:30:43.275Z,4.65
2023-02-03T11:33:18.207Z,4.10
2023-02-03T11:35:55.505Z,3.72
2023-02-03T11:38:29.108Z,5.22
2023-02-03T11:40:59.937Z,4.93
2023-02-03T11:43:26.738Z,5.32
2023-02-03T11:45:54.330Z,6.30
2023-02-03T11:48:25.181Z,5.70
2023-02-03T11:50:57.606Z,5.40
2023-02-03T11:53:27.049Z,5.93
2023-02-03T11:56:02.066Z,6.60
2023-02-03T11:58:40.391Z,5.85
2023-02-03T12:01:06.593Z,7.38
2023-02-03T12:03:59.278Z,8.88
2023-02-03T12:06:36.875Z,7.93
2023-02-03T12:09:03.050Z,7.03
2023-02-03T12:11:52.654Z,7.15
2023-02-03T12:14:42.030Z,7.40
2023-02-03T12:17:23.980Z,7.55
2023-02-03T12:19:56.120Z,7.07
2023-02-03T12:22:26.687Z,7.57
2023-02-03T12:25:05.118Z,7.47
2023-02-03T12:27:31.399Z,8.02
2023-02-03T12:30:01.667Z,8.10
2023-02-03T12:32:33.733Z,7.38
2023-02-03T12:35:05.815Z,8.43
2023-02-03T12:37:44.580Z,7.63
2023-02-03T12:40:39.902Z,8.30
2023-02-03T12:43:29.862Z,8.55
2023-02-03T12:46:04.287Z,8.60
2023-02-03T12:48:40.309Z,8.77
2023-02-03T12:51:10.526Z,8.07
2023-02-03T12:53:39.452Z,9.13
2023-02-03T12:56:10.873Z,8.30
2023-02-03T12:58:39.922Z,9.18
2023-02-03T13:01:26.439Z,8.70
2023-02-03T13:04:01.102Z,9.55
2023-02-03T13:06:30.114Z,9.05
2023-02-03T13:09:00.011Z,9.38
2023-02-03T13:11:31.491Z,9.77
2023-02-03T13:16:26.494Z,9.60
2023-02-03T13:18:55.863Z,9.48
2023-02-03T13:21:23.599Z,9.50
2023-02-03T13:23:51.423Z,9.60
2023-02-03T13:26:24.546Z,10.52
2023-02-03T13:28:51.341Z,9.70
2023-02-03T13:31:37.781Z,9.95
2023-02-03T13:34:09.251Z,10.80
2023-02-03T13:36:59.860Z,10.13
2023-02-03T13:39:29.030Z,10.00
2023-02-03T13:42:06.858Z,9.90
2023-02-03T13:44:33.232Z,10.10
2023-02-03T13:46:59.792Z,10.40
2023-02-03T13:49:31.050Z,10.75
2023-02-03T13:51:57.638Z,10.27
2023-02-03T13:54:37.612Z,10.07
2023-02-03T13:57:06.488Z,10.23
2023-02-03T13:59:38.772Z,9.93
2023-02-03T14:02:23.398Z,11.18
2023-02-03T14:04:54.560Z,10.32
2023-02-03T14:07:23.875Z,10.32
2023-02-03T14:10:16.556Z,10.85
2023-02-03T14:12:52.048Z,10.32
2023-02-03T14:15:32.803Z,10.55
2023-02-03T14:18:01.418Z,10.90
2023-02-03T14:20:27.727Z,10.50
2023-02-03T14:22:53.952Z,10.40
2023-02-03T14:25:21.126Z,11.07
2023-02-03T14:27:48.513Z,11.00
2023-02-03T14:30:16.662Z,11.38
2023-02-03T14:33:02.806Z,10.45
2023-02-03T14:35:42.322Z,10.38
2023-02-03T14:38:13.458Z,10.48
2023-02-03T14:40:49.310Z,9.30
2023-02-03T14:43:15.782Z,8.98
2023-02-03T14:46:01.044Z,9.35
2023-02-03T14:48:36.718Z,9.32
2023-02-03T14:51:09.210Z,8.82
2023-02-03T14:53:35.411Z,8.93
2023-02-03T14:56:11.390Z,8.85
2023-02-03T14:58:43.032Z,8.60
2023-02-03T15:01:23.065Z,8.02
2023-02-03T15:04:07.927Z,7.72
2023-02-03T15:06:41.513Z,7.97
2023-02-03T15:09:25.812Z,6.80
2023-02-03T15:11:52.028Z,6.90
2023-02-03T15:14:20.230Z,6.60
2023-02-03T15:16:47.921Z,5.88
2023-02-03T15:19:17.038Z,6.07
2023-02-03T15:21:43.634Z,6.72
2023-02-03T15:24:13.552Z,5.80
2023-02-03T15:26:44.917Z,5.55
2023-02-03T15:29:17.896Z,5.47
2023-02-03T15:31:46.089Z,5.78
2023-02-03T15:34:17.216Z,5.47
2023-02-03T15:36:45.603Z,5.50
2023-02-03T15:39:18.634Z,5.30
2023-02-03T15:41:45.377Z,5.72
2023-02-03T15:44:30.645Z,5.40
2023-02-03T15:46:57.783Z,5.38
2023-02-03T15:49:26.918Z,4.93
2023-02-03T15:51:58.754Z,5.30
2023-02-03T15:54:31.858Z,5.07
2023-02-03T15:57:05.239Z,5.10
2023-02-03T15:59:34.548Z,5.43
2023-02-03T16:02:01.968Z,5.53
2023-02-03T16:04:29.942Z,5.38
2023-02-03T16:06:56.520Z,5.47
2023-02-03T16:09:27.250Z,5.32
2023-02-03T16:12:15.657Z,5.10
2023-02-03T16:14:43.066Z,5.35
2023-02-03T16:17:23.129Z,5.13
2023-02-03T16:19:51.300Z,5.55
2023-02-03T16:22:32.289Z,5.15
2023-02-03T16:25:12.494Z,5.70
2023-02-03T16:27:38.785Z,5.97
2023-02-03T16:30:24.009Z,6.45
2023-02-03T16:33:27.810Z,6.03
2023-02-03T16:36:12.662Z,6.63
2023-02-03T16:39:02.528Z,6.32
2023-02-03T16:41:47.559Z,5.70
2023-02-03T16:44:32.380Z,6.00
2023-02-03T16:47:17.418Z,5.85
2023-02-03T16:50:02.422Z,5.72
2023-02-03T16:52:28.669Z,4.78
2023-02-03T16:54:55.172Z,5.40
2023-02-03T16:57:21.408Z,5.43
2023-02-03T16:59:47.613Z,4.82
2023-02-03T17:02:13.872Z,4.60
2023-02-03T17:04:40.276Z,4.43
2023-02-03T17:07:06.537Z,4.53
2023-02-03T17:09:35.472Z,4.63
2023-02-03T17:12:02.315Z,4.00
2023-02-03T17:14:29.019Z,4.32
2023-02-03T17:16:55.308Z,4.43
2023-02-03T17:19:21.519Z,4.53
2023-02-03T17:21:47.871Z,5.03
2023-02-03T17:24:14.566Z,4.60
2023-02-03T17:26:40.756Z,3.95
2023-02-03T17:29:06.981Z,4.85
2023-02-03T17:31:33.299Z,4.32
2023-02-03T17:33:59.559Z,3.50
2023-02-03T17:36:26.037Z,4.05
2023-02-03T17:55:18.193Z,5.15
2023-02-03T17:57:44.399Z,4.15
2023-02-03T18:00:11.032Z,4.50
2023-02-03T18:02:37.321Z,4.82
2023-02-03T18:05:03.577Z,4.28
2023-02-03T18:07:29.789Z,4.82
2023-02-03T18:09:55.999Z,4.00
2023-02-03T18:12:22.595Z,4.53
2023-02-03T18:14:49.361Z,4.10
2023-02-03T18:17:15.597Z,4.03
2023-02-03T18:19:46.648Z,4.13
2023-02-03T18:22:15.381Z,4.13
2023-02-03T18:24:44.774Z,4.55
2023-02-03T18:27:16.536Z,4.95
2023-02-03T18:29:44.411Z,4.05
2023-02-03T18:32:11.013Z,5.40
2023-02-03T18:34:37.269Z,4.85
2023-02-03T18:37:03.509Z,4.43
2023-02-03T18:39:29.764Z,4.55
2023-02-03T18:41:55.960Z,4.30
2023-02-03T18:44:22.261Z,4.55
2023-02-03T18:46:48.481Z,4.78
2023-02-03T18:49:15.006Z,4.88
2023-02-03T18:51:41.331Z,4.65
2023-02-03T18:54:07.548Z,5.28
2023-02-03T18:56:37.026Z,4.90
2023-02-03T18:59:04.450Z,4.50
2023-02-03T19:01:31.122Z,4.32
2023-02-03T19:03:58.915Z,4.80
2023-02-03T19:06:25.828Z,5.13
2023-02-03T19:08:52.099Z,6.03
2023-02-03T19:11:18.858Z,5.13
2023-02-03T19:13:45.176Z,4.68
2023-02-03T19:16:12.535Z,5.20
2023-02-03T19:18:38.804Z,5.43
2023-02-03T19:21:05.121Z,6.03
2023-02-03T19:23:31.357Z,6.43
2023-02-03T19:25:57.574Z,5.90
2023-02-03T19:28:30.532Z,6.53
2023-02-03T19:31:08.730Z,6.88
2023-02-03T19:33:36.065Z,6.65
2023-02-03T19:36:02.658Z,6.63
2023-02-03T19:38:28.923Z,7.50
2023-02-03T19:40:55.255Z,7.80
2023-02-03T19:43:21.640Z,7.18
2023-02-03T19:45:47.980Z,8.23
2023-02-03T19:48:14.224Z,8.85
2023-02-03T19:50:45.604Z,8.60
2023-02-03T19:53:12.870Z,9.45
2023-02-03T19:55:39.108Z,8.52
2023-02-03T19:58:05.471Z,9.30
2023-02-03T20:00:31.799Z,9.85
2023-02-03T20:02:58.166Z,9.63
2023-02-03T20:05:24.454Z,9.57
2023-02-03T20:07:52.396Z,10.60
2023-02-03T20:10:18.678Z,11.40
2023-02-03T20:12:44.958Z,10.43
2023-02-03T20:15:11.328Z,11.18
2023-02-03T20:17:37.614Z,10.90
2023-02-03T20:20:04.394Z,10.57
2023-02-03T20:22:30.791Z,10.60
2023-02-03T20:24:58.469Z,10.07
2023-02-03T20:27:25.457Z,10.75
2023-02-03T20:29:51.828Z,10.25
2023-02-03T20:32:18.133Z,9.15
2023-02-03T20:34:44.341Z,8.85
2023-02-03T20:37:11.087Z,8.75
2023-02-03T20:39:37.746Z,8.93
2023-02-03T20:42:11.924Z,8.93
2023-02-03T20:44:38.129Z,8.15
2023-02-03T20:47:08.508Z,7.35
2023-02-03T20:49:34.733Z,6.88
2023-02-03T20:52:00.916Z,7.05
2023-02-03T20:54:27.139Z,6.18
2023-02-03T20:56:53.379Z,7.32
2023-02-03T20:59:19.814Z,6.68
2023-02-03T21:01:46.810Z,6.30
2023-02-03T21:04:32.734Z,5.28
2023-02-03T21:06:59.091Z,5.85
2023-02-03T21:09:27.319Z,5.50
2023-02-03T21:11:54.520Z,5.72
2023-02-03T21:14:25.184Z,5.50
2023-02-03T21:16:51.752Z,5.40
2023-02-03T21:19:27.588Z,5.18
2023-02-03T21:21:53.862Z,5.10
2023-02-03T21:24:25.689Z,5.15
2023-02-03T21:26:52.026Z,4.80
2023-02-03T21:29:33.980Z,4.63
2023-02-03T21:32:00.331Z,5.10
2023-02-03T21:34:33.588Z,4.72
2023-02-03T21:37:18.305Z,5.22
2023-02-03T21:39:45.120Z,4.70
2023-02-03T21:42:17.562Z,5.10
2023-02-03T21:44:44.015Z,4.47
2023-02-03T21:47:19.563Z,4.88
2023-02-03T21:49:45.797Z,4.38
2023-02-03T21:52:15.003Z,5.43
2023-02-03T21:54:43.430Z,4.65
2023-02-03T21:57:14.219Z,4.90
2023-02-03T21:59:46.853Z,4.93
2023-02-03T22:02:34.106Z,4.72
2023-02-03T22:05:00.804Z,4.88
2023-02-03T22:07:27.026Z,4.20
2023-02-03T22:09:53.252Z,4.75
2023-02-03T22:12:19.468Z,4.93
2023-02-03T22:14:45.750Z,5.22
2023-02-03T22:17:14.269Z,5.55
2023-02-03T22:19:40.549Z,5.45
2023-02-03T22:22:06.753Z,4.95
2023-02-03T22:24:32.967Z,4.93
2023-02-03T22:27:00.117Z,4.88
2023-02-03T22:29:26.375Z,5.32
2023-02-03T22:31:52.631Z,5.35
2023-02-03T22:34:19.077Z,4.88
2023-02-03T22:36:45.280Z,4.57
2023-02-03T22:39:11.506Z,4.60
2023-02-03T22:41:37.690Z,4.47
2023-02-03T22:44:03.961Z,5.72
2023-02-03T22:46:30.213Z,4.80
2023-02-03T22:48:56.447Z,4.57
2023-02-03T22:51:22.671Z,4.20
2023-02-03T22:53:48.915Z,4.88
2023-02-03T22:56:15.117Z,5.40
2023-02-03T22:58:41.786Z,4.72
2023-02-03T23:01:08.064Z,4.30
2023-02-03T23:03:34.339Z,4.13
2023-02-03T23:06:00.609Z,4.50
2023-02-03T23:08:27.348Z,4.85
2023-02-03T23:10:53.615Z,4.47
2023-02-03T23:13:19.939Z,4.18
2023-02-03T23:15:46.239Z,4.80
2023-02-03T23:18:12.551Z,4.45
2023-02-03T23:20:39.106Z,4.45
2023-02-03T23:23:05.315Z,4.20
2023-02-03T23:25:31.535Z,4.72
2023-02-03T23:27:58.002Z,4.38
2023-02-03T23:30:24.275Z,4.80
2023-02-03T23:32:50.485Z,5.10
2023-02-03T23:35:35.647Z,5.15
2023-02-03T23:38:01.906Z,4.55
2023-02-03T23:40:28.682Z,5.00
2023-02-03T23:42:55.346Z,4.45
2023-02-03T23:45:21.592Z,5.75
2023-02-03T23:47:47.880Z,4.43
2023-02-03T23:50:15.829Z,4.57
2023-02-03T23:52:42.142Z,4.68
2023-02-03T23:55:10.069Z,3.42
2023-02-03T23:57:36.355Z,4.63
